createdAt,value
2023-05-07T00:01:01.575Z,7.20
2023-05-07T00:03:30.937Z,7.17
2023-05-07T00:05:58.935Z,8.93
2023-05-07T00:08:26.912Z,7.03
2023-05-07T00:10:55.109Z,5.77
2023-05-07T00:13:23.191Z,6.93
2023-05-07T00:15:51.184Z,7.70
2023-05-07T00:18:22.101Z,7.93
2023-05-07T00:20:51.397Z,7.50
2023-05-07T00:23:19.310Z,9.50
2023-05-07T00:25:47.220Z,10.23
2023-05-07T00:28:15.155Z,7.67
2023-05-07T00:30:43.051Z,8.97
2023-05-07T00:33:11.015Z,7.67
2023-05-07T00:35:38.938Z,8.83
2023-05-07T00:38:08.227Z,9.00
2023-05-07T00:40:36.298Z,9.57
2023-05-07T00:43:04.669Z,8.30
2023-05-07T00:45:32.835Z,7.70
2023-05-07T00:48:02.571Z,7.63
2023-05-07T00:50:31.100Z,7.63
2023-05-07T00:52:59.182Z,7.07
2023-05-07T00:55:28.712Z,6.03
2023-05-07T00:57:56.628Z,7.60
2023-05-07T01:00:25.775Z,8.37
2023-05-07T01:02:54.164Z,7.63
2023-05-07T01:05:24.540Z,9.37
2023-05-07T01:07:53.388Z,7.63
2023-05-07T01:10:21.528Z,6.50
2023-05-07T01:12:51.773Z,4.93
2023-05-07T01:15:20.171Z,8.10
2023-05-07T01:17:48.143Z,6.93
2023-05-07T01:20:16.947Z,6.03
2023-05-07T01:22:46.621Z,9.00
2023-05-07T01:25:14.693Z,6.00
2023-05-07T01:27:42.617Z,7.27
2023-05-07T01:30:11.469Z,5.83
2023-05-07T01:32:43.319Z,6.73
2023-05-07T01:35:13.682Z,6.17
2023-05-07T01:37:41.976Z,5.73
2023-05-07T01:40:12.379Z,7.23
2023-05-07T01:42:40.637Z,6.67
2023-05-07T01:45:09.502Z,8.20
2023-05-07T01:47:38.644Z,7.50
2023-05-07T01:50:09.675Z,4.77
2023-05-07T01:52:38.643Z,5.80
2023-05-07T01:55:08.156Z,6.37
2023-05-07T01:57:37.573Z,6.97
2023-05-07T02:00:06.472Z,6.63
2023-05-07T02:02:34.482Z,5.37
2023-05-07T02:05:03.000Z,4.87
2023-05-07T02:07:30.968Z,6.40
2023-05-07T02:09:58.882Z,6.13
2023-05-07T02:12:26.788Z,8.23
2023-05-07T02:14:56.116Z,5.33
2023-05-07T02:17:24.036Z,5.03
2023-05-07T02:19:51.930Z,6.17
2023-05-07T02:22:19.953Z,5.10
2023-05-07T02:24:47.838Z,4.57
2023-05-07T02:27:15.785Z,5.90
2023-05-07T02:29:43.647Z,5.23
2023-05-07T02:32:13.057Z,5.80
2023-05-07T02:34:40.948Z,6.53
2023-05-07T02:37:08.836Z,4.27
2023-05-07T02:39:38.207Z,4.83
2023-05-07T02:42:06.126Z,5.93
2023-05-07T02:44:34.035Z,7.73
2023-05-07T02:47:01.979Z,5.77
2023-05-07T02:49:31.241Z,5.60
2023-05-07T02:51:59.135Z,7.37
2023-05-07T02:54:27.040Z,3.60
2023-05-07T02:56:54.940Z,4.93
2023-05-07T02:59:22.820Z,6.47
2023-05-07T03:01:50.793Z,4.93
2023-05-07T03:04:18.772Z,5.43
2023-05-07T03:06:48.088Z,5.13
2023-05-07T03:09:16.007Z,4.50
2023-05-07T03:11:43.944Z,6.07
2023-05-07T03:14:11.861Z,4.47
2023-05-07T03:16:40.592Z,6.43
2023-05-07T03:19:08.550Z,5.10
2023-05-07T03:21:36.507Z,6.23
2023-05-07T03:24:06.482Z,4.57
2023-05-07T03:26:34.372Z,5.90
2023-05-07T03:29:02.282Z,5.53
2023-05-07T03:31:30.224Z,7.17
2023-05-07T03:33:59.170Z,5.07
2023-05-07T03:36:27.683Z,5.13
2023-05-07T03:38:55.607Z,5.13
2023-05-07T03:41:25.062Z,5.03
2023-05-07T03:43:52.943Z,4.97
2023-05-07T03:46:20.970Z,4.93
2023-05-07T03:48:48.938Z,4.97
2023-05-07T03:51:16.825Z,6.77
2023-05-07T03:53:44.801Z,6.60
2023-05-07T03:56:12.654Z,6.23
2023-05-07T03:58:41.920Z,4.73
2023-05-07T04:01:09.886Z,5.77
2023-05-07T04:03:38.036Z,5.50
2023-05-07T04:06:06.166Z,5.60
2023-05-07T04:08:34.008Z,5.13
2023-05-07T04:11:01.930Z,5.93
2023-05-07T04:13:29.874Z,5.93
2023-05-07T04:16:00.135Z,7.13
2023-05-07T04:18:28.116Z,6.23
2023-05-07T04:20:56.148Z,6.87
2023-05-07T04:23:24.132Z,7.00
2023-05-07T04:25:52.780Z,7.43
2023-05-07T04:28:20.705Z,6.43
2023-05-07T04:30:48.669Z,7.33
2023-05-07T04:33:18.365Z,8.00
2023-05-07T04:35:47.265Z,7.27
2023-05-07T04:38:15.231Z,8.70
2023-05-07T04:40:43.364Z,8.07
2023-05-07T04:43:11.360Z,6.93
2023-05-07T04:45:41.594Z,6.83
2023-05-07T04:48:10.904Z,8.00
2023-05-07T04:50:40.194Z,6.40
2023-05-07T04:53:08.082Z,6.93
2023-05-07T04:55:36.010Z,6.73
2023-05-07T04:58:04.173Z,8.63
2023-05-07T05:00:32.196Z,6.43
2023-05-07T05:03:00.245Z,8.20
2023-05-07T05:05:28.239Z,9.57
2023-05-07T05:07:57.504Z,6.30
2023-05-07T05:10:25.876Z,6.70
2023-05-07T05:12:53.884Z,6.93
2023-05-07T05:15:21.840Z,5.87
2023-05-07T05:17:49.770Z,8.93
2023-05-07T05:20:17.861Z,5.97
2023-05-07T05:22:45.772Z,5.80
2023-05-07T05:25:15.202Z,6.00
2023-05-07T05:27:43.125Z,7.50
2023-05-07T05:30:12.077Z,8.27
2023-05-07T05:32:40.214Z,6.57
2023-05-07T05:35:08.918Z,6.00
2023-05-07T05:37:36.850Z,9.23
2023-05-07T05:40:05.718Z,6.07
2023-05-07T05:42:35.001Z,6.57
2023-05-07T05:45:02.935Z,7.50
2023-05-07T05:47:30.959Z,7.93
2023-05-07T05:49:58.904Z,7.73
2023-05-07T05:52:26.870Z,5.63
2023-05-07T05:54:55.436Z,9.57
2023-05-07T05:57:23.319Z,7.23
2023-05-07T05:59:53.088Z,8.27
2023-05-07T06:02:21.097Z,7.10
2023-05-07T06:04:49.035Z,6.37
2023-05-07T06:07:16.999Z,5.40
2023-05-07T06:09:45.258Z,6.77
2023-05-07T06:12:13.849Z,8.37
2023-05-07T06:14:41.946Z,8.13
2023-05-07T06:17:11.246Z,7.90
2023-05-07T06:19:39.142Z,7.53
2023-05-07T06:22:07.066Z,6.83
2023-05-07T06:24:34.985Z,6.77
2023-05-07T06:27:02.944Z,7.43
2023-05-07T06:29:32.601Z,7.27
2023-05-07T06:32:08.820Z,6.27
2023-05-07T06:34:38.450Z,6.33
2023-05-07T06:37:06.408Z,5.57
2023-05-07T06:39:34.603Z,7.33
2023-05-07T06:42:02.561Z,6.60
2023-05-07T06:44:30.456Z,6.70
2023-05-07T06:46:58.811Z,5.87
2023-05-07T06:49:26.709Z,6.67
2023-05-07T06:51:56.572Z,7.53
2023-05-07T06:54:24.864Z,6.17
2023-05-07T06:56:52.799Z,7.90
2023-05-07T06:59:21.378Z,5.50
2023-05-07T07:01:49.354Z,8.63
2023-05-07T07:04:17.331Z,6.53
2023-05-07T07:06:45.278Z,6.10
2023-05-07T07:09:14.573Z,6.07
2023-05-07T07:11:42.519Z,6.50
2023-05-07T07:14:10.787Z,6.67
2023-05-07T07:16:38.859Z,6.23
2023-05-07T07:19:06.872Z,6.80
2023-05-07T07:21:34.799Z,6.10
2023-05-07T07:24:02.701Z,7.37
2023-05-07T07:26:32.355Z,5.83
2023-05-07T07:29:00.223Z,6.93
2023-05-07T07:31:28.166Z,6.47
2023-05-07T07:33:56.074Z,7.90
2023-05-07T07:36:31.980Z,7.43
2023-05-07T07:39:06.748Z,7.53
2023-05-07T07:41:36.039Z,5.40
2023-05-07T07:44:08.610Z,8.27
2023-05-07T07:46:36.749Z,5.33
2023-05-07T07:49:04.631Z,5.33
2023-05-07T07:51:32.600Z,6.70
2023-05-07T07:54:00.813Z,8.07
2023-05-07T07:56:29.187Z,5.33
2023-05-07T07:58:58.711Z,4.87
2023-05-07T08:01:27.032Z,5.43
2023-05-07T08:03:55.274Z,5.20
2023-05-07T08:06:23.346Z,5.47
2023-05-07T08:08:51.252Z,7.83
2023-05-07T08:11:19.252Z,5.03
2023-05-07T08:13:48.113Z,4.30
2023-05-07T08:16:17.451Z,5.43
2023-05-07T08:18:45.650Z,6.70
2023-05-07T08:21:13.637Z,6.93
2023-05-07T08:23:41.545Z,5.53
2023-05-07T08:26:10.013Z,4.90
2023-05-07T08:28:37.933Z,6.00
2023-05-07T08:31:06.010Z,6.20
2023-05-07T08:33:35.312Z,6.27
2023-05-07T08:36:03.195Z,5.13
2023-05-07T08:38:31.232Z,4.97
2023-05-07T08:40:59.144Z,4.60
2023-05-07T08:43:29.031Z,4.93
2023-05-07T08:45:57.760Z,4.87
2023-05-07T08:48:28.048Z,5.43
2023-05-07T08:50:57.343Z,4.23
2023-05-07T08:53:25.288Z,6.27
2023-05-07T08:55:53.585Z,3.47
2023-05-07T08:58:21.580Z,4.27
2023-05-07T09:00:49.561Z,4.73
2023-05-07T09:03:17.757Z,5.90
2023-05-07T09:05:45.899Z,4.47
2023-05-07T09:08:17.388Z,6.13
2023-05-07T09:10:45.430Z,4.63
2023-05-07T09:13:15.578Z,5.10
2023-05-07T09:15:43.726Z,4.57
2023-05-07T09:18:11.701Z,5.77
2023-05-07T09:20:39.810Z,2.93
2023-05-07T09:23:08.983Z,3.93
2023-05-07T09:25:39.027Z,4.93
2023-05-07T09:28:08.246Z,4.47
2023-05-07T09:30:36.547Z,4.60
2023-05-07T09:33:28.825Z,5.60
2023-05-07T09:35:56.804Z,4.77
2023-05-07T09:38:24.832Z,4.23
2023-05-07T09:41:04.192Z,3.77
2023-05-07T09:43:35.435Z,5.07
2023-05-07T09:46:08.842Z,5.83
2023-05-07T09:48:39.664Z,6.30
2023-05-07T09:51:18.109Z,4.30
2023-05-07T09:53:47.361Z,5.77
2023-05-07T09:56:17.755Z,5.47
2023-05-07T09:58:46.220Z,3.47
2023-05-07T10:01:15.036Z,3.10
2023-05-07T10:03:44.522Z,6.03
2023-05-07T10:06:12.867Z,5.00
2023-05-07T10:08:40.795Z,4.73
2023-05-07T10:11:08.785Z,5.07
2023-05-07T10:13:39.132Z,3.70
2023-05-07T10:16:07.607Z,4.43
2023-05-07T10:18:35.950Z,3.43
2023-05-07T10:21:09.366Z,4.27
2023-05-07T10:23:37.713Z,2.97
2023-05-07T10:26:07.630Z,4.77
2023-05-07T10:28:40.959Z,3.80
2023-05-07T10:31:21.540Z,5.00
2023-05-07T10:33:49.864Z,3.40
2023-05-07T10:36:17.927Z,5.43
2023-05-07T10:38:45.972Z,3.43
2023-05-07T10:41:14.128Z,4.40
2023-05-07T10:43:45.074Z,4.77
2023-05-07T10:46:14.322Z,5.97
2023-05-07T10:49:12.243Z,5.27
2023-05-07T10:51:41.171Z,4.90
2023-05-07T10:54:22.689Z,4.37
2023-05-07T10:56:52.132Z,4.23
2023-05-07T10:59:36.060Z,5.60
2023-05-07T11:02:07.308Z,6.83
2023-05-07T11:04:36.250Z,4.27
2023-05-07T11:07:28.043Z,6.03
2023-05-07T11:10:05.139Z,3.87
2023-05-07T11:12:52.926Z,3.90
2023-05-07T11:15:55.574Z,3.47
2023-05-07T11:18:23.632Z,4.07
2023-05-07T11:20:56.286Z,5.23
2023-05-07T11:24:09.841Z,5.43
2023-05-07T11:26:48.315Z,4.17
2023-05-07T11:29:20.140Z,11.70
2023-05-07T11:31:55.263Z,4.73
2023-05-07T11:34:24.775Z,4.60
2023-05-07T11:36:52.943Z,4.33
2023-05-07T11:39:31.083Z,4.63
2023-05-07T11:41:59.362Z,4.60
2023-05-07T11:44:27.299Z,4.27
2023-05-07T11:46:56.696Z,5.23
2023-05-07T11:49:27.684Z,3.27
2023-05-07T11:51:55.925Z,4.90
2023-05-07T11:54:23.867Z,3.73
2023-05-07T11:56:51.792Z,4.83
2023-05-07T11:59:20.453Z,4.30
2023-05-07T12:01:49.225Z,5.17
2023-05-07T12:04:23.150Z,3.77
2023-05-07T12:06:52.047Z,4.83
2023-05-07T12:09:19.953Z,6.37
2023-05-07T12:11:48.751Z,4.83
2023-05-07T12:14:18.017Z,3.67
2023-05-07T12:16:46.197Z,5.87
2023-05-07T12:19:15.840Z,5.30
2023-05-07T12:21:45.441Z,5.40
2023-05-07T12:24:13.380Z,5.03
2023-05-07T12:26:42.182Z,3.77
2023-05-07T12:29:10.088Z,4.13
2023-05-07T12:31:38.122Z,4.07
2023-05-07T12:34:06.099Z,4.33
2023-05-07T12:36:39.415Z,3.80
2023-05-07T12:39:09.704Z,4.30
2023-05-07T12:41:55.848Z,4.83
2023-05-07T12:44:24.840Z,5.20
2023-05-07T12:46:53.353Z,4.27
2023-05-07T12:49:22.487Z,4.10
2023-05-07T12:51:52.023Z,4.17
2023-05-07T12:54:31.786Z,3.60
2023-05-07T12:57:04.283Z,3.23
2023-05-07T12:59:36.137Z,4.27
2023-05-07T13:02:04.129Z,3.90
2023-05-07T13:04:32.061Z,3.77
2023-05-07T13:07:00.430Z,5.10
2023-05-07T13:09:30.019Z,3.07
2023-05-07T13:12:02.391Z,3.23
2023-05-07T13:14:30.321Z,3.53
2023-05-07T13:16:58.217Z,4.53
2023-05-07T13:19:26.244Z,2.83
2023-05-07T13:21:54.133Z,3.90
2023-05-07T13:24:22.054Z,4.53
2023-05-07T13:26:50.049Z,3.20
2023-05-07T13:29:19.382Z,2.80
2023-05-07T13:31:48.458Z,3.50
2023-05-07T13:34:17.779Z,5.00
2023-05-07T13:36:45.671Z,5.43
2023-05-07T13:39:13.714Z,2.60
2023-05-07T13:41:41.617Z,5.07
2023-05-07T13:44:09.597Z,3.33
2023-05-07T13:46:39.082Z,2.93
2023-05-07T13:49:07.000Z,3.23
2023-05-07T13:51:34.950Z,3.97
2023-05-07T13:54:02.899Z,2.90
2023-05-07T13:56:32.400Z,3.00
2023-05-07T13:59:01.054Z,2.80
2023-05-07T14:01:29.394Z,3.93
2023-05-07T14:04:00.577Z,3.07
2023-05-07T14:06:28.659Z,3.80
2023-05-07T14:08:59.044Z,2.43
2023-05-07T14:11:27.094Z,3.37
2023-05-07T14:13:55.042Z,3.27
2023-05-07T14:16:23.049Z,3.10
2023-05-07T14:18:51.025Z,3.60
2023-05-07T14:21:20.453Z,4.57
2023-05-07T14:23:48.320Z,2.70
2023-05-07T14:26:16.235Z,2.30
2023-05-07T14:28:47.301Z,3.70
2023-05-07T14:31:15.558Z,2.93
2023-05-07T14:33:43.511Z,3.37
2023-05-07T14:36:11.438Z,2.73
2023-05-07T14:38:40.921Z,3.57
2023-05-07T14:41:08.884Z,4.10
2023-05-07T14:43:36.778Z,2.77
2023-05-07T14:46:04.729Z,3.97
2023-05-07T14:48:32.638Z,2.80
2023-05-07T14:51:00.586Z,2.57
2023-05-07T14:53:28.461Z,2.27
2023-05-07T14:55:57.766Z,2.40
2023-05-07T14:58:25.961Z,3.63
2023-05-07T15:00:53.876Z,3.00
2023-05-07T15:03:22.893Z,8.50
2023-05-07T15:05:52.380Z,2.57
2023-05-07T15:08:20.600Z,2.00
2023-05-07T15:10:48.598Z,2.13
2023-05-07T15:13:17.940Z,2.33
2023-05-07T15:15:46.976Z,3.33
2023-05-07T15:18:15.053Z,2.83
2023-05-07T15:20:43.663Z,2.20
2023-05-07T15:23:13.255Z,2.40
2023-05-07T15:25:41.257Z,2.70
2023-05-07T15:28:09.630Z,2.03
2023-05-07T15:30:38.915Z,2.70
2023-05-07T15:33:06.914Z,3.43
2023-05-07T15:35:34.950Z,2.50
2023-05-07T15:38:04.550Z,2.70
2023-05-07T15:40:33.597Z,2.77
2023-05-07T15:43:01.570Z,2.30
2023-05-07T15:45:30.303Z,2.70
2023-05-07T15:47:59.746Z,2.63
2023-05-07T15:50:27.767Z,2.67
2023-05-07T15:52:55.674Z,2.77
2023-05-07T15:55:23.790Z,2.70
2023-05-07T15:57:51.701Z,2.20
2023-05-07T16:00:20.133Z,2.37
2023-05-07T16:02:48.400Z,2.47
2023-05-07T16:05:17.837Z,2.00
2023-05-07T16:07:45.831Z,1.80
2023-05-07T16:10:13.768Z,1.70
2023-05-07T16:12:41.734Z,2.93
2023-05-07T16:15:10.204Z,2.40
2023-05-07T16:17:38.196Z,2.47
2023-05-07T16:20:09.213Z,2.57
2023-05-07T16:22:38.626Z,3.47
2023-05-07T16:25:07.760Z,2.73
2023-05-07T16:27:35.683Z,3.73
2023-05-07T16:30:03.620Z,3.20
2023-05-07T16:32:31.571Z,3.53
2023-05-07T16:34:59.616Z,2.07
2023-05-07T16:37:27.505Z,5.57
2023-05-07T16:39:58.247Z,2.43
2023-05-07T16:42:26.267Z,2.13
2023-05-07T16:44:54.652Z,1.90
2023-05-07T16:47:22.653Z,2.27
2023-05-07T16:49:50.652Z,2.47
2023-05-07T16:52:18.643Z,2.63
2023-05-07T16:54:46.536Z,2.67
2023-05-07T16:57:15.884Z,2.57
2023-05-07T16:59:43.778Z,1.80
2023-05-07T17:02:11.942Z,2.07
2023-05-07T17:04:39.873Z,1.60
2023-05-07T17:07:07.829Z,1.97
2023-05-07T17:09:35.752Z,2.10
2023-05-07T17:12:03.969Z,1.93
2023-05-07T17:14:33.314Z,2.03
2023-05-07T17:17:01.248Z,2.70
2023-05-07T17:19:29.167Z,1.57
2023-05-07T17:21:57.616Z,2.13
2023-05-07T17:24:25.668Z,1.77
2023-05-07T17:26:53.555Z,1.97
2023-05-07T17:29:21.422Z,2.10
2023-05-07T17:31:50.805Z,4.10
2023-05-07T17:34:18.718Z,1.70
2023-05-07T17:36:46.657Z,1.57
2023-05-07T17:39:14.553Z,2.33
2023-05-07T17:41:42.530Z,1.70
2023-05-07T17:44:10.427Z,2.93
2023-05-07T17:46:38.287Z,1.93
2023-05-07T17:49:07.605Z,2.47
2023-05-07T17:51:46.267Z,1.80
2023-05-07T17:54:18.348Z,1.60
2023-05-07T17:56:46.305Z,1.97
2023-05-07T17:59:14.220Z,2.37
2023-05-07T18:01:42.399Z,1.40
2023-05-07T18:04:11.778Z,2.33
2023-05-07T18:06:41.684Z,1.53
2023-05-07T18:09:09.638Z,2.50
2023-05-07T18:11:37.887Z,2.50
2023-05-07T18:14:05.862Z,2.40
2023-05-07T18:16:34.038Z,1.90
2023-05-07T18:19:02.057Z,1.57
2023-05-07T18:21:32.649Z,1.93
2023-05-07T18:24:00.701Z,1.90
2023-05-07T18:26:28.582Z,4.50
2023-05-07T18:28:56.486Z,1.50
2023-05-07T18:31:24.541Z,1.90
2023-05-07T18:33:53.241Z,1.50
2023-05-07T18:36:21.137Z,1.47
2023-05-07T18:38:50.410Z,1.70
2023-05-07T18:41:18.326Z,3.00
2023-05-07T18:43:46.241Z,1.93
2023-05-07T18:46:14.141Z,2.00
2023-05-07T18:48:42.058Z,1.63
2023-05-07T18:51:12.654Z,3.53
2023-05-07T18:53:40.711Z,1.50
2023-05-07T18:56:10.007Z,1.67
2023-05-07T18:58:37.878Z,2.23
2023-05-07T19:01:08.430Z,2.43
2023-05-07T19:03:36.742Z,2.33
2023-05-07T19:06:05.998Z,1.60
2023-05-07T19:08:34.249Z,4.03
2023-05-07T19:11:03.427Z,1.53
2023-05-07T19:13:32.845Z,1.77
2023-05-07T19:16:00.850Z,1.80
2023-05-07T19:18:29.763Z,2.07
2023-05-07T19:20:57.747Z,1.70
2023-05-07T19:23:26.063Z,2.03
2023-05-07T19:25:53.981Z,3.50
2023-05-07T19:28:22.054Z,3.20
2023-05-07T19:30:52.714Z,3.23
2023-05-07T19:33:20.789Z,2.73
2023-05-07T19:35:48.718Z,2.50
2023-05-07T19:38:16.624Z,2.00
2023-05-07T19:40:44.496Z,2.20
2023-05-07T19:43:12.400Z,3.13
2023-05-07T19:45:42.893Z,2.60
2023-05-07T19:48:12.227Z,2.40
2023-05-07T19:50:40.578Z,2.47
2023-05-07T19:53:08.602Z,2.63
2023-05-07T19:55:36.512Z,2.63
2023-05-07T19:58:04.506Z,2.77
2023-05-07T20:00:33.961Z,2.87
2023-05-07T20:03:02.062Z,2.30
2023-05-07T20:05:31.436Z,2.17
2023-05-07T20:08:00.236Z,2.57
2023-05-07T20:10:28.274Z,2.87
2023-05-07T20:12:56.389Z,2.43
2023-05-07T20:15:24.314Z,2.17
2023-05-07T20:17:52.256Z,3.03
2023-05-07T20:20:20.416Z,3.90
2023-05-07T20:22:49.813Z,3.90
2023-05-07T20:25:17.709Z,2.53
2023-05-07T20:27:45.691Z,2.87
2023-05-07T20:30:14.729Z,2.47
2023-05-07T20:32:43.492Z,2.17
2023-05-07T20:35:11.714Z,2.20
2023-05-07T20:37:40.385Z,2.13
2023-05-07T20:40:11.243Z,2.60
2023-05-07T20:42:39.467Z,2.47
2023-05-07T20:45:08.264Z,2.00
2023-05-07T20:47:36.310Z,2.00
2023-05-07T20:50:04.524Z,3.70
2023-05-07T20:52:32.414Z,2.97
2023-05-07T20:55:00.326Z,2.53
2023-05-07T20:57:29.636Z,2.50
2023-05-07T20:59:57.547Z,2.53
2023-05-07T21:02:25.433Z,2.90
2023-05-07T21:04:53.454Z,2.90
2023-05-07T21:07:21.371Z,2.53
2023-05-07T21:09:49.248Z,2.20
2023-05-07T21:12:17.148Z,2.23
2023-05-07T21:14:46.439Z,2.00
2023-05-07T21:17:14.351Z,2.17
2023-05-07T21:19:43.358Z,2.80
2023-05-07T21:22:11.325Z,2.73
2023-05-07T21:24:41.243Z,3.90
2023-05-07T21:27:09.273Z,1.97
2023-05-07T21:29:37.231Z,1.70
2023-05-07T21:32:06.760Z,3.00
2023-05-07T21:34:35.269Z,2.30
2023-05-07T21:37:03.199Z,3.63
2023-05-07T21:39:31.121Z,2.70
2023-05-07T21:41:59.013Z,2.57
2023-05-07T21:44:28.802Z,2.60
2023-05-07T21:46:56.748Z,1.70
2023-05-07T21:49:26.177Z,2.30
2023-05-07T21:51:54.055Z,2.30
2023-05-07T21:54:21.940Z,2.30
2023-05-07T21:56:50.234Z,2.53
2023-05-07T21:59:18.266Z,1.90
2023-05-07T22:01:46.165Z,2.13
2023-05-07T22:04:14.192Z,2.20
2023-05-07T22:06:43.463Z,2.13
2023-05-07T22:09:11.818Z,3.70
2023-05-07T22:11:39.803Z,1.97
2023-05-07T22:14:07.721Z,2.07
2023-05-07T22:16:35.702Z,2.50
2023-05-07T22:19:03.701Z,3.97
2023-05-07T22:21:31.654Z,2.87
2023-05-07T22:24:00.912Z,3.00
2023-05-07T22:26:28.848Z,4.20
2023-05-07T22:28:56.793Z,1.97
2023-05-07T22:31:24.701Z,2.97
2023-05-07T22:33:52.668Z,2.60
2023-05-07T22:36:20.587Z,1.90
2023-05-07T22:38:48.472Z,2.20
2023-05-07T22:41:17.880Z,3.03
2023-05-07T22:43:45.820Z,3.03
2023-05-07T22:46:13.780Z,2.90
2023-05-07T22:48:41.702Z,2.07
2023-05-07T22:51:14.040Z,2.53
2023-05-07T22:53:42.015Z,2.30
2023-05-07T22:56:11.133Z,2.30
2023-05-07T22:58:40.454Z,4.33
2023-05-07T23:01:13.951Z,2.30
2023-05-07T23:03:42.250Z,2.27
2023-05-07T23:06:10.684Z,3.07
2023-05-07T23:08:38.616Z,2.73
2023-05-07T23:11:06.729Z,2.77
2023-05-07T23:13:35.099Z,3.67
2023-05-07T23:16:04.419Z,3.73
2023-05-07T23:18:32.697Z,4.07
2023-05-07T23:21:00.594Z,3.73
2023-05-07T23:23:33.625Z,3.43
2023-05-07T23:26:01.600Z,2.60
2023-05-07T23:28:29.525Z,3.83
2023-05-07T23:30:57.591Z,2.73
2023-05-07T23:33:26.940Z,3.13
2023-05-07T23:36:00.385Z,3.90
2023-05-07T23:38:28.266Z,2.20
2023-05-07T23:40:56.213Z,2.50
2023-05-07T23:43:24.599Z,3.27
2023-05-07T23:45:52.679Z,3.03
2023-05-07T23:48:20.852Z,3.60
2023-05-07T23:50:50.172Z,4.40
2023-05-07T23:53:18.055Z,4.33
2023-05-07T23:55:45.937Z,3.73
2023-05-07T23:58:14.204Z,2.77
